sensor_id;sensor_type;location;lat;lon;timestamp;pressure;altitude;pressure_sealevel;temperature;humidity
49915;BME280;35806;47.958;13.158;2022-10-17T00:02:27;95336.28;;;14.14;56.97
49915;BME280;35806;47.958;13.158;2022-10-17T00:04:54;95337.67;;;14.23;56.86
49915;BME280;35806;47.958;13.158;2022-10-17T00:07:22;95342.34;;;14.49;56.80
49915;BME280;35806;47.958;13.158;2022-10-17T00:09:49;95342.78;;;14.21;56.88
49915;BME280;35806;47.958;13.158;2022-10-17T00:12:17;95341.85;;;14.36;56.63
49915;BME280;35806;47.958;13.158;2022-10-17T00:14:44;95343.20;;;14.39;56.87
49915;BME280;35806;47.958;13.158;2022-10-17T00:17:12;95345.58;;;14.41;56.39
49915;BME280;35806;47.958;13.158;2022-10-17T00:19:39;95345.36;;;14.53;56.46
49915;BME280;35806;47.958;13.158;2022-10-17T00:22:07;95345.40;;;14.43;56.63
49915;BME280;35806;47.958;13.158;2022-10-17T00:24:34;95342.51;;;14.67;55.27
49915;BME280;35806;47.958;13.158;2022-10-17T00:27:02;95345.30;;;15.12;54.12
49915;BME280;35806;47.958;13.158;2022-10-17T00:29:29;95343.17;;;14.71;53.93
49915;BME280;35806;47.958;13.158;2022-10-17T00:31:57;95346.30;;;14.97;53.99
49915;BME280;35806;47.958;13.158;2022-10-17T00:34:25;95345.78;;;14.84;54.26
49915;BME280;35806;47.958;13.158;2022-10-17T00:36:55;95339.92;;;14.31;54.70
49915;BME280;35806;47.958;13.158;2022-10-17T00:39:22;95343.74;;;14.76;54.07
49915;BME280;35806;47.958;13.158;2022-10-17T00:41:50;95341.52;;;14.71;52.97
49915;BME280;35806;47.958;13.158;2022-10-17T00:45:25;95339.66;;;14.52;54.74
49915;BME280;35806;47.958;13.158;2022-10-17T00:47:57;95337.42;;;14.56;54.38
49915;BME280;35806;47.958;13.158;2022-10-17T00:50:27;95338.15;;;14.41;54.14
49915;BME280;35806;47.958;13.158;2022-10-17T00:52:56;95333.69;;;14.33;53.96
49915;BME280;35806;47.958;13.158;2022-10-17T00:55:30;95336.85;;;14.43;52.70
49915;BME280;35806;47.958;13.158;2022-10-17T00:58:01;95333.20;;;14.27;53.17
49915;BME280;35806;47.958;13.158;2022-10-17T01:15:38;95335.86;;;13.58;54.50
49915;BME280;35806;47.958;13.158;2022-10-17T01:18:18;95338.88;;;13.62;55.25
49915;BME280;35806;47.958;13.158;2022-10-17T01:21:07;95339.77;;;14.07;53.73
49915;BME280;35806;47.958;13.158;2022-10-17T01:25:10;95339.57;;;13.69;54.52
49915;BME280;35806;47.958;13.158;2022-10-17T01:27:50;95342.50;;;13.93;53.48
49915;BME280;35806;47.958;13.158;2022-10-17T01:30:47;95339.27;;;13.54;54.67
49915;BME280;35806;47.958;13.158;2022-10-17T01:33:21;95337.36;;;13.53;54.23
49915;BME280;35806;47.958;13.158;2022-10-17T01:35:58;95337.82;;;13.31;54.66
49915;BME280;35806;47.958;13.158;2022-10-17T01:38:32;95336.80;;;13.16;54.91
49915;BME280;35806;47.958;13.158;2022-10-17T01:41:04;95337.37;;;13.33;54.77
49915;BME280;35806;47.958;13.158;2022-10-17T01:43:36;95338.46;;;13.33;55.03
49915;BME280;35806;47.958;13.158;2022-10-17T01:46:11;95338.84;;;13.43;55.60
49915;BME280;35806;47.958;13.158;2022-10-17T01:48:43;95341.47;;;13.65;54.77
49915;BME280;35806;47.958;13.158;2022-10-17T01:51:14;95341.18;;;13.61;55.14
49915;BME280;35806;47.958;13.158;2022-10-17T01:53:47;95339.42;;;13.26;55.16
49915;BME280;35806;47.958;13.158;2022-10-17T01:56:17;95339.72;;;13.08;54.27
49915;BME280;35806;47.958;13.158;2022-10-17T01:58:49;95336.43;;;13.47;54.37
49915;BME280;35806;47.958;13.158;2022-10-17T02:01:20;95336.52;;;13.13;55.33
49915;BME280;35806;47.958;13.158;2022-10-17T02:03:49;95335.99;;;13.01;56.05
49915;BME280;35806;47.958;13.158;2022-10-17T02:06:17;95334.53;;;13.35;56.56
49915;BME280;35806;47.958;13.158;2022-10-17T02:08:45;95333.12;;;13.36;56.03
49915;BME280;35806;47.958;13.158;2022-10-17T02:11:16;95334.74;;;13.60;55.61
49915;BME280;35806;47.958;13.158;2022-10-17T02:14:08;95333.79;;;13.42;55.72
49915;BME280;35806;47.958;13.158;2022-10-17T02:16:42;95335.83;;;13.06;56.05
49915;BME280;35806;47.958;13.158;2022-10-17T02:19:29;95341.84;;;13.05;56.42
49915;BME280;35806;47.958;13.158;2022-10-17T02:22:09;95340.50;;;13.66;56.32
49915;BME280;35806;47.958;13.158;2022-10-17T02:24:46;95343.27;;;13.44;56.51
49915;BME280;35806;47.958;13.158;2022-10-17T02:27:19;95343.00;;;13.15;56.88
49915;BME280;35806;47.958;13.158;2022-10-17T02:29:57;95343.64;;;13.43;56.47
49915;BME280;35806;47.958;13.158;2022-10-17T02:32:33;95346.31;;;13.25;56.67
49915;BME280;35806;47.958;13.158;2022-10-17T02:35:05;95344.24;;;13.51;56.44
49915;BME280;35806;47.958;13.158;2022-10-17T02:37:35;95345.14;;;13.49;56.39
49915;BME280;35806;47.958;13.158;2022-10-17T02:40:04;95343.12;;;13.48;55.65
49915;BME280;35806;47.958;13.158;2022-10-17T02:42:33;95344.69;;;13.53;55.78
49915;BME280;35806;47.958;13.158;2022-10-17T02:45:02;95347.43;;;13.54;56.36
49915;BME280;35806;47.958;13.158;2022-10-17T02:47:34;95351.56;;;14.08;54.24
49915;BME280;35806;47.958;13.158;2022-10-17T02:50:03;95352.13;;;13.76;54.07
49915;BME280;35806;47.958;13.158;2022-10-17T02:52:36;95354.72;;;13.89;52.93
49915;BME280;35806;47.958;13.158;2022-10-17T02:55:07;95358.80;;;14.18;53.53
49915;BME280;35806;47.958;13.158;2022-10-17T02:57:38;95359.97;;;13.66;54.91
49915;BME280;35806;47.958;13.158;2022-10-17T03:00:10;95362.01;;;13.61;55.69
49915;BME280;35806;47.958;13.158;2022-10-17T03:02:39;95364.83;;;13.99;54.97
49915;BME280;35806;47.958;13.158;2022-10-17T03:05:09;95366.02;;;13.72;55.67
49915;BME280;35806;47.958;13.158;2022-10-17T03:07:37;95364.24;;;14.01;54.82
49915;BME280;35806;47.958;13.158;2022-10-17T03:10:05;95361.91;;;13.10;55.06
49915;BME280;35806;47.958;13.158;2022-10-17T03:12:33;95361.56;;;13.61;54.44
49915;BME280;35806;47.958;13.158;2022-10-17T03:15:00;95359.89;;;13.76;54.94
49915;BME280;35806;47.958;13.158;2022-10-17T03:17:28;95359.64;;;13.97;55.09
49915;BME280;35806;47.958;13.158;2022-10-17T03:19:55;95361.81;;;13.86;54.44
49915;BME280;35806;47.958;13.158;2022-10-17T03:22:23;95364.05;;;14.09;54.30
49915;BME280;35806;47.958;13.158;2022-10-17T03:24:50;95360.10;;;14.16;54.14
49915;BME280;35806;47.958;13.158;2022-10-17T03:27:18;95362.77;;;14.20;54.08
49915;BME280;35806;47.958;13.158;2022-10-17T03:29:45;95363.38;;;13.93;53.25
49915;BME280;35806;47.958;13.158;2022-10-17T03:32:13;95364.22;;;13.81;53.35
49915;BME280;35806;47.958;13.158;2022-10-17T03:34:40;95365.27;;;14.63;53.50
49915;BME280;35806;47.958;13.158;2022-10-17T03:37:08;95367.36;;;14.42;53.36
49915;BME280;35806;47.958;13.158;2022-10-17T03:39:35;95370.55;;;14.05;53.93
49915;BME280;35806;47.958;13.158;2022-10-17T03:42:03;95373.69;;;14.01;54.20
49915;BME280;35806;47.958;13.158;2022-10-17T03:44:30;95376.78;;;14.14;53.54
49915;BME280;35806;47.958;13.158;2022-10-17T03:46:58;95376.39;;;14.58;52.59
49915;BME280;35806;47.958;13.158;2022-10-17T03:49:30;95374.96;;;14.36;52.95
49915;BME280;35806;47.958;13.158;2022-10-17T03:51:58;95377.59;;;14.71;52.22
49915;BME280;35806;47.958;13.158;2022-10-17T03:54:26;95378.08;;;14.37;53.28
49915;BME280;35806;47.958;13.158;2022-10-17T03:56:54;95377.94;;;13.91;53.49
49915;BME280;35806;47.958;13.158;2022-10-17T03:59:21;95378.90;;;14.45;52.48
49915;BME280;35806;47.958;13.158;2022-10-17T04:01:49;95379.93;;;13.98;53.73
49915;BME280;35806;47.958;13.158;2022-10-17T04:04:16;95382.68;;;13.86;54.00
49915;BME280;35806;47.958;13.158;2022-10-17T04:06:44;95385.17;;;13.79;53.47
49915;BME280;35806;47.958;13.158;2022-10-17T04:09:13;95382.52;;;13.78;53.77
49915;BME280;35806;47.958;13.158;2022-10-17T04:11:41;95382.41;;;13.63;52.94
49915;BME280;35806;47.958;13.158;2022-10-17T04:14:09;95382.62;;;13.95;51.94
49915;BME280;35806;47.958;13.158;2022-10-17T04:16:37;95382.44;;;13.68;51.72
49915;BME280;35806;47.958;13.158;2022-10-17T04:19:04;95384.28;;;13.81;51.66
49915;BME280;35806;47.958;13.158;2022-10-17T04:21:32;95382.98;;;13.63;51.75
49915;BME280;35806;47.958;13.158;2022-10-17T04:24:00;95386.79;;;13.71;51.70
49915;BME280;35806;47.958;13.158;2022-10-17T04:26:32;95388.42;;;13.74;51.95
49915;BME280;35806;47.958;13.158;2022-10-17T04:29:00;95388.13;;;13.64;51.42
49915;BME280;35806;47.958;13.158;2022-10-17T04:31:27;95389.45;;;13.56;50.86
49915;BME280;35806;47.958;13.158;2022-10-17T04:33:55;95388.98;;;13.72;52.38
49915;BME280;35806;47.958;13.158;2022-10-17T04:36:22;95387.24;;;12.81;54.58
49915;BME280;35806;47.958;13.158;2022-10-17T04:38:50;95387.72;;;13.06;54.54
49915;BME280;35806;47.958;13.158;2022-10-17T04:41:18;95384.46;;;13.94;53.92
49915;BME280;35806;47.958;13.158;2022-10-17T04:43:45;95388.88;;;13.75;51.76
49915;BME280;35806;47.958;13.158;2022-10-17T04:46:14;95388.98;;;14.04;51.82
49915;BME280;35806;47.958;13.158;2022-10-17T04:48:41;95392.00;;;14.07;52.32
49915;BME280;35806;47.958;13.158;2022-10-17T04:51:11;95390.53;;;13.33;53.34
49915;BME280;35806;47.958;13.158;2022-10-17T04:53:41;95392.08;;;13.44;53.08
49915;BME280;35806;47.958;13.158;2022-10-17T04:56:10;95389.46;;;13.96;51.24
49915;BME280;35806;47.958;13.158;2022-10-17T04:58:39;95391.17;;;13.34;53.18
49915;BME280;35806;47.958;13.158;2022-10-17T05:01:09;95394.57;;;13.81;52.24
49915;BME280;35806;47.958;13.158;2022-10-17T05:03:36;95393.46;;;13.45;52.67
49915;BME280;35806;47.958;13.158;2022-10-17T05:06:06;95393.87;;;13.49;53.15
49915;BME280;35806;47.958;13.158;2022-10-17T05:08:34;95397.77;;;13.56;53.20
49915;BME280;35806;47.958;13.158;2022-10-17T05:11:03;95398.16;;;13.49;53.00
49915;BME280;35806;47.958;13.158;2022-10-17T05:13:30;95396.12;;;13.31;52.83
49915;BME280;35806;47.958;13.158;2022-10-17T05:15:58;95395.84;;;13.62;52.94
49915;BME280;35806;47.958;13.158;2022-10-17T05:18:26;95396.94;;;13.47;53.54
49915;BME280;35806;47.958;13.158;2022-10-17T05:20:54;95399.77;;;13.36;53.44
49915;BME280;35806;47.958;13.158;2022-10-17T05:23:22;95398.99;;;13.40;52.87
49915;BME280;35806;47.958;13.158;2022-10-17T05:25:53;95402.19;;;13.26;52.90
49915;BME280;35806;47.958;13.158;2022-10-17T05:28:21;95404.26;;;13.19;53.64
49915;BME280;35806;47.958;13.158;2022-10-17T05:30:48;95407.02;;;13.15;54.04
49915;BME280;35806;47.958;13.158;2022-10-17T05:33:15;95404.27;;;12.90;54.10
49915;BME280;35806;47.958;13.158;2022-10-17T05:35:42;95406.63;;;12.98;54.24
49915;BME280;35806;47.958;13.158;2022-10-17T05:38:09;95407.05;;;13.61;54.15
49915;BME280;35806;47.958;13.158;2022-10-17T05:40:36;95407.54;;;13.31;52.97
49915;BME280;35806;47.958;13.158;2022-10-17T05:43:04;95407.64;;;13.41;53.62
49915;BME280;35806;47.958;13.158;2022-10-17T05:45:31;95410.79;;;13.41;53.68
49915;BME280;35806;47.958;13.158;2022-10-17T05:47:58;95410.70;;;13.37;53.18
49915;BME280;35806;47.958;13.158;2022-10-17T05:50:25;95412.95;;;13.61;52.54
49915;BME280;35806;47.958;13.158;2022-10-17T05:52:58;95415.99;;;13.24;53.28
49915;BME280;35806;47.958;13.158;2022-10-17T05:55:25;95419.37;;;13.25;54.18
49915;BME280;35806;47.958;13.158;2022-10-17T05:57:52;95419.78;;;13.40;54.47
49915;BME280;35806;47.958;13.158;2022-10-17T06:00:20;95420.72;;;13.51;53.28
49915;BME280;35806;47.958;13.158;2022-10-17T06:02:47;95419.40;;;13.67;53.55
49915;BME280;35806;47.958;13.158;2022-10-17T06:05:15;95420.94;;;13.40;53.71
49915;BME280;35806;47.958;13.158;2022-10-17T06:07:43;95420.60;;;13.51;54.32
49915;BME280;35806;47.958;13.158;2022-10-17T06:10:10;95418.03;;;13.33;54.84
49915;BME280;35806;47.958;13.158;2022-10-17T06:12:38;95420.22;;;13.83;53.62
49915;BME280;35806;47.958;13.158;2022-10-17T06:15:06;95420.79;;;13.61;53.62
49915;BME280;35806;47.958;13.158;2022-10-17T06:17:33;95422.29;;;13.65;54.26
49915;BME280;35806;47.958;13.158;2022-10-17T06:20:01;95426.40;;;13.37;53.37
49915;BME280;35806;47.958;13.158;2022-10-17T06:22:28;95429.11;;;14.13;53.10
49915;BME280;35806;47.958;13.158;2022-10-17T06:24:56;95429.00;;;14.18;53.33
49915;BME280;35806;47.958;13.158;2022-10-17T06:27:23;95429.13;;;14.39;53.66
49915;BME280;35806;47.958;13.158;2022-10-17T06:29:50;95430.32;;;14.39;53.77
49915;BME280;35806;47.958;13.158;2022-10-17T06:32:17;95431.00;;;14.75;52.82
49915;BME280;35806;47.958;13.158;2022-10-17T06:34:45;95434.34;;;14.61;53.16
49915;BME280;35806;47.958;13.158;2022-10-17T06:37:13;95440.06;;;14.70;53.69
49915;BME280;35806;47.958;13.158;2022-10-17T06:39:40;95442.75;;;14.66;53.99
49915;BME280;35806;47.958;13.158;2022-10-17T06:42:08;95445.31;;;15.10;54.34
49915;BME280;35806;47.958;13.158;2022-10-17T06:44:35;95446.73;;;15.24;54.49
49915;BME280;35806;47.958;13.158;2022-10-17T06:47:03;95451.07;;;14.50;55.29
49915;BME280;35806;47.958;13.158;2022-10-17T06:49:30;95453.35;;;14.42;56.27
49915;BME280;35806;47.958;13.158;2022-10-17T06:51:58;95456.39;;;14.24;55.71
49915;BME280;35806;47.958;13.158;2022-10-17T06:54:25;95453.82;;;13.52;55.05
49915;BME280;35806;47.958;13.158;2022-10-17T06:56:53;95459.79;;;13.26;55.52
49915;BME280;35806;47.958;13.158;2022-10-17T06:59:20;95461.20;;;13.50;54.63
49915;BME280;35806;47.958;13.158;2022-10-17T07:01:48;95464.36;;;14.90;53.06
49915;BME280;35806;47.958;13.158;2022-10-17T07:04:15;95465.71;;;14.15;53.10
49915;BME280;35806;47.958;13.158;2022-10-17T07:06:43;95468.64;;;14.05;53.81
49915;BME280;35806;47.958;13.158;2022-10-17T07:09:10;95472.96;;;15.27;51.61
49915;BME280;35806;47.958;13.158;2022-10-17T07:11:38;95477.94;;;15.44;52.02
49915;BME280;35806;47.958;13.158;2022-10-17T07:14:05;95483.25;;;15.37;50.34
49915;BME280;35806;47.958;13.158;2022-10-17T07:16:33;95482.31;;;16.44;49.75
49915;BME280;35806;47.958;13.158;2022-10-17T07:19:01;95483.47;;;16.77;48.72
49915;BME280;35806;47.958;13.158;2022-10-17T07:21:29;95482.54;;;17.20;48.75
49915;BME280;35806;47.958;13.158;2022-10-17T07:23:56;95482.70;;;17.57;47.47
49915;BME280;35806;47.958;13.158;2022-10-17T07:26:23;95478.80;;;18.25;45.21
49915;BME280;35806;47.958;13.158;2022-10-17T07:28:53;95481.33;;;18.16;44.75
49915;BME280;35806;47.958;13.158;2022-10-17T07:31:21;95487.40;;;17.71;46.59
49915;BME280;35806;47.958;13.158;2022-10-17T07:33:50;95488.59;;;18.10;45.82
49915;BME280;35806;47.958;13.158;2022-10-17T07:36:18;95488.93;;;17.73;46.17
49915;BME280;35806;47.958;13.158;2022-10-17T07:38:45;95491.94;;;17.78;46.20
49915;BME280;35806;47.958;13.158;2022-10-17T07:41:12;95491.45;;;17.96;45.89
49915;BME280;35806;47.958;13.158;2022-10-17T07:43:39;95492.91;;;18.08;45.61
49915;BME280;35806;47.958;13.158;2022-10-17T07:46:07;95496.01;;;17.79;46.74
49915;BME280;35806;47.958;13.158;2022-10-17T07:48:34;95498.83;;;18.14;46.57
49915;BME280;35806;47.958;13.158;2022-10-17T07:51:03;95501.42;;;17.97;47.90
49915;BME280;35806;47.958;13.158;2022-10-17T07:53:31;95505.40;;;18.09;48.58
49915;BME280;35806;47.958;13.158;2022-10-17T07:56:03;95504.82;;;18.23;48.71
49915;BME280;35806;47.958;13.158;2022-10-17T07:58:30;95504.34;;;18.17;48.97
49915;BME280;35806;47.958;13.158;2022-10-17T08:01:00;95506.69;;;18.31;48.89
49915;BME280;35806;47.958;13.158;2022-10-17T08:03:28;95508.64;;;18.40;49.27
49915;BME280;35806;47.958;13.158;2022-10-17T08:05:57;95507.45;;;18.22;49.88
49915;BME280;35806;47.958;13.158;2022-10-17T08:08:25;95509.06;;;18.29;49.42
49915;BME280;35806;47.958;13.158;2022-10-17T08:10:52;95507.78;;;18.51;48.91
49915;BME280;35806;47.958;13.158;2022-10-17T08:13:20;95510.99;;;18.82;48.89
49915;BME280;35806;47.958;13.158;2022-10-17T08:15:48;95510.55;;;18.76;48.65
49915;BME280;35806;47.958;13.158;2022-10-17T08:18:16;95508.22;;;18.62;48.27
49915;BME280;35806;47.958;13.158;2022-10-17T08:20:44;95510.55;;;18.56;48.25
49915;BME280;35806;47.958;13.158;2022-10-17T08:23:11;95509.21;;;18.31;49.11
49915;BME280;35806;47.958;13.158;2022-10-17T08:25:38;95510.06;;;18.46;49.46
49915;BME280;35806;47.958;13.158;2022-10-17T08:28:06;95513.37;;;18.38;49.29
49915;BME280;35806;47.958;13.158;2022-10-17T08:30:33;95514.50;;;18.42;49.37
49915;BME280;35806;47.958;13.158;2022-10-17T08:33:01;95518.35;;;19.19;48.76
49915;BME280;35806;47.958;13.158;2022-10-17T08:35:28;95515.91;;;18.63;49.11
49915;BME280;35806;47.958;13.158;2022-10-17T08:37:58;95514.95;;;18.58;49.02
49915;BME280;35806;47.958;13.158;2022-10-17T08:40:28;95514.27;;;18.65;49.21
49915;BME280;35806;47.958;13.158;2022-10-17T08:43:05;95515.33;;;19.05;49.00
49915;BME280;35806;47.958;13.158;2022-10-17T08:45:41;95520.08;;;19.01;48.65
49915;BME280;35806;47.958;13.158;2022-10-17T08:48:29;95519.74;;;19.17;47.94
49915;BME280;35806;47.958;13.158;2022-10-17T08:50:59;95520.32;;;19.46;47.55
49915;BME280;35806;47.958;13.158;2022-10-17T08:53:32;95517.08;;;19.61;47.24
49915;BME280;35806;47.958;13.158;2022-10-17T08:56:06;95515.93;;;20.20;46.80
49915;BME280;35806;47.958;13.158;2022-10-17T08:58:39;95515.74;;;19.99;45.66
49915;BME280;35806;47.958;13.158;2022-10-17T09:01:17;95515.19;;;20.09;45.46
49915;BME280;35806;47.958;13.158;2022-10-17T09:04:00;95513.56;;;20.25;45.55
49915;BME280;35806;47.958;13.158;2022-10-17T09:06:32;95514.55;;;20.60;44.87
49915;BME280;35806;47.958;13.158;2022-10-17T09:09:09;95515.50;;;20.38;45.20
49915;BME280;35806;47.958;13.158;2022-10-17T09:11:51;95515.55;;;20.77;44.68
49915;BME280;35806;47.958;13.158;2022-10-17T09:14:35;95518.27;;;20.88;44.24
49915;BME280;35806;47.958;13.158;2022-10-17T09:17:14;95520.99;;;20.82;43.60
49915;BME280;35806;47.958;13.158;2022-10-17T09:19:50;95523.04;;;21.25;43.45
49915;BME280;35806;47.958;13.158;2022-10-17T09:22:24;95521.07;;;21.40;42.50
49915;BME280;35806;47.958;13.158;2022-10-17T09:24:57;95519.47;;;21.44;41.68
49915;BME280;35806;47.958;13.158;2022-10-17T09:27:32;95518.72;;;21.70;41.38
49915;BME280;35806;47.958;13.158;2022-10-17T09:30:16;95522.81;;;22.01;42.12
49915;BME280;35806;47.958;13.158;2022-10-17T09:32:46;95524.65;;;22.40;41.13
49915;BME280;35806;47.958;13.158;2022-10-17T09:35:14;95526.99;;;22.66;39.73
49915;BME280;35806;47.958;13.158;2022-10-17T09:37:42;95525.48;;;22.37;40.27
49915;BME280;35806;47.958;13.158;2022-10-17T09:40:24;95524.18;;;22.61;39.63
49915;BME280;35806;47.958;13.158;2022-10-17T09:42:52;95521.36;;;22.69;37.88
49915;BME280;35806;47.958;13.158;2022-10-17T09:45:22;95523.70;;;22.49;36.84
49915;BME280;35806;47.958;13.158;2022-10-17T09:47:54;95525.09;;;22.80;38.20
49915;BME280;35806;47.958;13.158;2022-10-17T09:50:26;95525.59;;;23.28;37.15
49915;BME280;35806;47.958;13.158;2022-10-17T09:52:55;95528.17;;;23.07;37.41
49915;BME280;35806;47.958;13.158;2022-10-17T09:55:33;95529.69;;;23.72;37.24
49915;BME280;35806;47.958;13.158;2022-10-17T09:58:06;95529.02;;;23.11;36.81
49915;BME280;35806;47.958;13.158;2022-10-17T10:00:35;95529.36;;;23.73;36.02
49915;BME280;35806;47.958;13.158;2022-10-17T10:03:16;95529.93;;;23.70;35.55
49915;BME280;35806;47.958;13.158;2022-10-17T10:06:00;95534.01;;;23.75;36.05
49915;BME280;35806;47.958;13.158;2022-10-17T10:08:30;95534.94;;;24.55;34.29
49915;BME280;35806;47.958;13.158;2022-10-17T10:11:00;95534.75;;;24.25;34.33
49915;BME280;35806;47.958;13.158;2022-10-17T10:13:28;95534.05;;;24.51;33.29
49915;BME280;35806;47.958;13.158;2022-10-17T10:16:14;95530.56;;;24.57;32.60
49915;BME280;35806;47.958;13.158;2022-10-17T10:18:42;95527.20;;;24.67;34.18
49915;BME280;35806;47.958;13.158;2022-10-17T10:21:12;95528.74;;;24.92;34.90
49915;BME280;35806;47.958;13.158;2022-10-17T10:23:40;95532.23;;;25.01;35.60
49915;BME280;35806;47.958;13.158;2022-10-17T10:26:20;95536.79;;;24.96;33.55
49915;BME280;35806;47.958;13.158;2022-10-17T10:28:57;95534.01;;;25.25;33.99
49915;BME280;35806;47.958;13.158;2022-10-17T10:31:34;95536.07;;;25.59;33.89
49915;BME280;35806;47.958;13.158;2022-10-17T10:34:14;95536.11;;;25.18;33.61
49915;BME280;35806;47.958;13.158;2022-10-17T10:36:48;95535.72;;;25.39;32.95
49915;BME280;35806;47.958;13.158;2022-10-17T10:39:27;95535.52;;;25.31;32.45
49915;BME280;35806;47.958;13.158;2022-10-17T10:41:57;95532.41;;;25.56;32.11
49915;BME280;35806;47.958;13.158;2022-10-17T10:44:28;95533.88;;;25.82;32.81
49915;BME280;35806;47.958;13.158;2022-10-17T10:47:30;95534.84;;;25.83;33.69
49915;BME280;35806;47.958;13.158;2022-10-17T10:50:17;95532.04;;;26.24;31.89
49915;BME280;35806;47.958;13.158;2022-10-17T10:52:54;95528.73;;;26.32;31.49
49915;BME280;35806;47.958;13.158;2022-10-17T10:55:26;95526.37;;;26.59;30.82
49915;BME280;35806;47.958;13.158;2022-10-17T10:57:59;95529.63;;;26.34;31.01
49915;BME280;35806;47.958;13.158;2022-10-17T11:00:31;95529.11;;;26.70;30.36
49915;BME280;35806;47.958;13.158;2022-10-17T11:03:08;95533.85;;;26.96;28.81
49915;BME280;35806;47.958;13.158;2022-10-17T11:05:43;95531.63;;;27.39;29.78
49915;BME280;35806;47.958;13.158;2022-10-17T11:08:18;95531.41;;;27.29;30.14
49915;BME280;35806;47.958;13.158;2022-10-17T11:11:02;95534.56;;;27.07;29.81
49915;BME280;35806;47.958;13.158;2022-10-17T11:13:35;95536.05;;;27.07;29.69
49915;BME280;35806;47.958;13.158;2022-10-17T11:16:13;95536.45;;;26.74;29.94
49915;BME280;35806;47.958;13.158;2022-10-17T11:18:46;95532.78;;;27.22;30.46
49915;BME280;35806;47.958;13.158;2022-10-17T11:21:17;95530.78;;;27.15;30.55
49915;BME280;35806;47.958;13.158;2022-10-17T11:23:50;95528.85;;;27.39;30.46
49915;BME280;35806;47.958;13.158;2022-10-17T11:26:24;95527.17;;;27.47;30.05
49915;BME280;35806;47.958;13.158;2022-10-17T11:28:53;95524.52;;;27.47;29.68
49915;BME280;35806;47.958;13.158;2022-10-17T11:31:23;95520.61;;;27.54;29.60
49915;BME280;35806;47.958;13.158;2022-10-17T11:33:56;95519.50;;;27.61;30.55
49915;BME280;35806;47.958;13.158;2022-10-17T11:36:27;95518.36;;;27.85;30.77
49915;BME280;35806;47.958;13.158;2022-10-17T11:38:59;95520.79;;;27.55;30.64
49915;BME280;35806;47.958;13.158;2022-10-17T11:41:31;95523.87;;;27.63;30.29
49915;BME280;35806;47.958;13.158;2022-10-17T11:44:07;95523.55;;;27.64;29.72
49915;BME280;35806;47.958;13.158;2022-10-17T11:46:39;95522.82;;;28.03;28.68
49915;BME280;35806;47.958;13.158;2022-10-17T11:49:12;95526.72;;;27.40;29.43
49915;BME280;35806;47.958;13.158;2022-10-17T11:51:45;95527.43;;;27.87;30.25
49915;BME280;35806;47.958;13.158;2022-10-17T11:54:17;95526.95;;;27.71;30.14
49915;BME280;35806;47.958;13.158;2022-10-17T11:56:52;95524.84;;;28.19;31.09
49915;BME280;35806;47.958;13.158;2022-10-17T11:59:44;95521.97;;;28.17;30.21
49915;BME280;35806;47.958;13.158;2022-10-17T12:02:19;95520.33;;;28.74;30.38
49915;BME280;35806;47.958;13.158;2022-10-17T12:04:55;95520.87;;;28.60;28.28
49915;BME280;35806;47.958;13.158;2022-10-17T12:07:28;95521.44;;;29.07;28.86
49915;BME280;35806;47.958;13.158;2022-10-17T12:10:06;95521.26;;;28.44;28.29
49915;BME280;35806;47.958;13.158;2022-10-17T12:12:39;95519.93;;;28.20;29.97
49915;BME280;35806;47.958;13.158;2022-10-17T12:15:39;95515.50;;;28.16;31.53
49915;BME280;35806;47.958;13.158;2022-10-17T12:18:15;95518.18;;;28.33;29.23
49915;BME280;35806;47.958;13.158;2022-10-17T12:20:43;95519.09;;;28.16;29.88
49915;BME280;35806;47.958;13.158;2022-10-17T12:23:30;95518.32;;;28.34;29.94
49915;BME280;35806;47.958;13.158;2022-10-17T12:25:59;95518.78;;;28.76;30.91
49915;BME280;35806;47.958;13.158;2022-10-17T12:28:29;95516.07;;;29.37;30.61
49915;BME280;35806;47.958;13.158;2022-10-17T12:30:59;95515.23;;;29.62;29.40
49915;BME280;35806;47.958;13.158;2022-10-17T12:33:31;95517.74;;;29.46;29.80
49915;BME280;35806;47.958;13.158;2022-10-17T12:36:38;95519.51;;;29.05;29.73
49915;BME280;35806;47.958;13.158;2022-10-17T12:39:55;95518.43;;;29.32;29.54
49915;BME280;35806;47.958;13.158;2022-10-17T12:42:32;95520.05;;;29.57;28.63
49915;BME280;35806;47.958;13.158;2022-10-17T12:45:00;95519.23;;;29.45;29.13
49915;BME280;35806;47.958;13.158;2022-10-17T12:47:36;95521.07;;;28.64;29.35
49915;BME280;35806;47.958;13.158;2022-10-17T12:51:00;95523.49;;;29.22;30.28
49915;BME280;35806;47.958;13.158;2022-10-17T12:53:36;95523.62;;;25.02;33.99
49915;BME280;35806;47.958;13.158;2022-10-17T12:56:06;95525.49;;;25.07;35.90
49915;BME280;35806;47.958;13.158;2022-10-17T12:58:34;95522.27;;;24.79;35.84
49915;BME280;35806;47.958;13.158;2022-10-17T13:01:02;95523.97;;;25.23;35.07
49915;BME280;35806;47.958;13.158;2022-10-17T13:03:31;95522.09;;;25.20;35.54
49915;BME280;35806;47.958;13.158;2022-10-17T13:06:02;95521.32;;;23.95;37.41
49915;BME280;35806;47.958;13.158;2022-10-17T13:08:32;95519.31;;;24.28;36.97
49915;BME280;35806;47.958;13.158;2022-10-17T13:11:00;95519.05;;;25.60;36.22
49915;BME280;35806;47.958;13.158;2022-10-17T13:13:36;95517.71;;;25.51;35.96
49915;BME280;35806;47.958;13.158;2022-10-17T13:16:06;95523.73;;;25.65;35.64
49915;BME280;35806;47.958;13.158;2022-10-17T13:18:34;95528.06;;;25.27;36.67
49915;BME280;35806;47.958;13.158;2022-10-17T13:21:04;95528.78;;;25.79;36.03
49915;BME280;35806;47.958;13.158;2022-10-17T13:23:33;95526.24;;;23.29;37.76
49915;BME280;35806;47.958;13.158;2022-10-17T13:26:04;95525.18;;;23.39;39.99
49915;BME280;35806;47.958;13.158;2022-10-17T13:28:31;95532.34;;;22.06;41.67
49915;BME280;35806;47.958;13.158;2022-10-17T13:30:59;95533.36;;;23.29;41.14